Time;durP1;ratioP1;P1;durP2;ratioP2;P2;SDS_P1;SDS_P2;PMS_P1;PMS_P2;Temp;Humidity;BMP_temperature;BMP_pressure;BME280_temperature;BME280_humidity;BME280_pressure;Samples;Min_cycle;Max_cycle;Signal;HPM_P1;HPM_P2
2023/07/18 00:02:21;;;;;;;17.20;6.67;;;;;;;;;;5035262;28;20479;-76
2023/07/18 00:04:48;;;;;;;7.53;5.40;;;;;;;;;;5035356;28;20464;-76
2023/07/18 00:07:15;;;;;;;6.00;5.23;;;;;;;;;;5035550;28;20795;-76
2023/07/18 00:09:43;;;;;;;6.30;5.70;;;;;;;;;;5035275;28;20449;-75
2023/07/18 00:12:10;;;;;;;9.37;6.10;;;;;;;;;;5035182;28;20966;-76
2023/07/18 00:14:37;;;;;;;7.70;5.37;;;;;;;;;;5035160;28;20456;-76
2023/07/18 00:17:06;;;;;;;9.17;6.03;;;;;;;;;;5035046;28;20456;-76
2023/07/18 00:19:33;;;;;;;6.90;5.17;;;;;;;;;;5034934;28;20457;-75
2023/07/18 00:22:01;;;;;;;7.60;4.70;;;;;;;;;;5034903;28;20583;-76
2023/07/18 00:24:28;;;;;;;10.60;5.37;;;;;;;;;;5034977;28;20454;-76
2023/07/18 00:26:57;;;;;;;9.57;6.10;;;;;;;;;;5034923;28;20465;-76
2023/07/18 00:29:25;;;;;;;9.33;4.73;;;;;;;;;;5034978;28;20540;-76
2023/07/18 00:31:52;;;;;;;10.70;4.33;;;;;;;;;;5034966;28;20500;-76
2023/07/18 00:34:20;;;;;;;10.00;4.90;;;;;;;;;;5034693;28;20473;-75
2023/07/18 00:36:48;;;;;;;6.93;5.37;;;;;;;;;;5034834;28;20464;-76
2023/07/18 00:39:15;;;;;;;11.10;5.90;;;;;;;;;;5034880;28;20450;-76
2023/07/18 00:41:42;;;;;;;7.80;5.70;;;;;;;;;;5034720;28;20481;-76
2023/07/18 00:44:09;;;;;;;6.53;4.80;;;;;;;;;;5034842;28;20449;-76
2023/07/18 00:46:36;;;;;;;8.60;6.23;;;;;;;;;;5034552;28;20460;-76
2023/07/18 00:49:03;;;;;;;9.10;6.07;;;;;;;;;;5034518;28;20450;-76
2023/07/18 00:51:32;;;;;;;6.10;5.43;;;;;;;;;;5034470;28;20477;-76
2023/07/18 00:53:59;;;;;;;7.43;5.20;;;;;;;;;;5034647;28;20831;-76
2023/07/18 00:56:27;;;;;;;6.83;5.87;;;;;;;;;;5034508;28;20446;-76
2023/07/18 00:58:54;;;;;;;8.20;5.33;;;;;;;;;;5034356;28;20799;-76
2023/07/18 01:01:22;;;;;;;10.57;5.97;;;;;;;;;;5034045;28;20500;-76
2023/07/18 01:03:49;;;;;;;9.90;6.03;;;;;;;;;;5034734;28;20438;-76
2023/07/18 01:06:16;;;;;;;7.97;4.80;;;;;;;;;;5034204;28;20457;-76
2023/07/18 01:08:44;;;;;;;10.27;5.70;;;;;;;;;;5034099;28;20452;-76
2023/07/18 01:11:11;;;;;;;7.03;5.30;;;;;;;;;;5034299;28;20470;-76
2023/07/18 01:13:39;;;;;;;8.20;5.47;;;;;;;;;;5034024;28;20461;-76
2023/07/18 01:16:06;;;;;;;7.40;5.30;;;;;;;;;;5034319;28;20454;-76
2023/07/18 01:18:33;;;;;;;9.20;4.97;;;;;;;;;;5033895;28;20453;-76
2023/07/18 01:21:00;;;;;;;5.80;4.90;;;;;;;;;;5034144;28;20835;-76
2023/07/18 01:23:29;;;;;;;6.20;5.60;;;;;;;;;;5033873;28;20465;-75
2023/07/18 01:25:57;;;;;;;13.83;5.60;;;;;;;;;;5034156;28;20453;-76
2023/07/18 01:28:24;;;;;;;6.07;5.43;;;;;;;;;;5033907;28;20537;-76
2023/07/18 01:30:51;;;;;;;6.37;5.70;;;;;;;;;;5033973;28;20473;-76
2023/07/18 01:33:19;;;;;;;6.90;5.60;;;;;;;;;;5033920;28;20959;-76
2023/07/18 01:35:46;;;;;;;8.87;4.80;;;;;;;;;;5034029;28;20939;-76
2023/07/18 01:38:13;;;;;;;8.10;6.10;;;;;;;;;;5033890;28;20882;-76
2023/07/18 01:40:42;;;;;;;6.63;5.30;;;;;;;;;;5033530;28;20489;-75
2023/07/18 01:43:10;;;;;;;6.20;5.60;;;;;;;;;;5033863;28;20449;-76
2023/07/18 01:45:38;;;;;;;10.53;5.67;;;;;;;;;;5033614;28;20793;-76
2023/07/18 01:48:05;;;;;;;10.57;5.77;;;;;;;;;;5033507;28;20943;-75
2023/07/18 01:50:33;;;;;;;7.90;7.00;;;;;;;;;;5033621;28;20484;-76
2023/07/18 01:53:00;;;;;;;7.63;5.33;;;;;;;;;;5033426;28;20453;-76
2023/07/18 01:55:27;;;;;;;9.10;6.40;;;;;;;;;;5033344;28;20453;-76
2023/07/18 01:57:55;;;;;;;7.97;5.90;;;;;;;;;;5033648;28;20475;-76
2023/07/18 02:00:24;;;;;;;7.60;6.47;;;;;;;;;;5033677;28;20453;-76
2023/07/18 02:02:54;;;;;;;9.73;6.10;;;;;;;;;;5033605;28;20438;-76
2023/07/18 02:05:21;;;;;;;11.30;5.50;;;;;;;;;;5033591;28;20446;-76
2023/07/18 02:07:48;;;;;;;8.40;6.27;;;;;;;;;;5033563;28;20938;-76
2023/07/18 02:10:16;;;;;;;11.00;5.70;;;;;;;;;;5033089;28;20458;-76
2023/07/18 02:12:44;;;;;;;7.03;5.90;;;;;;;;;;5032838;28;20502;-76
2023/07/18 02:15:14;;;;;;;11.47;6.27;;;;;;;;;;5033249;28;20445;-76
2023/07/18 02:17:42;;;;;;;8.40;5.17;;;;;;;;;;5033417;28;20568;-76
2023/07/18 02:20:11;;;;;;;6.57;5.70;;;;;;;;;;5033063;28;20453;-76
2023/07/18 02:22:39;;;;;;;9.63;5.97;;;;;;;;;;5035538;28;20966;-76
2023/07/18 02:25:07;;;;;;;8.80;5.57;;;;;;;;;;5040074;28;20449;-76
2023/07/18 02:27:34;;;;;;;13.90;6.20;;;;;;;;;;5039981;28;20449;-76
2023/07/18 02:30:01;;;;;;;7.30;6.13;;;;;;;;;;5039970;28;20922;-76
2023/07/18 02:32:31;;;;;;;7.57;5.20;;;;;;;;;;5039577;28;20979;-76
2023/07/18 02:34:58;;;;;;;10.13;5.73;;;;;;;;;;5039629;28;20465;-76
2023/07/18 02:37:25;;;;;;;9.20;5.90;;;;;;;;;;5039326;28;20450;-76
2023/07/18 02:39:52;;;;;;;10.40;6.60;;;;;;;;;;5039631;28;20935;-76
2023/07/18 02:42:20;;;;;;;9.37;6.57;;;;;;;;;;5039466;28;20489;-76
2023/07/18 02:44:47;;;;;;;8.10;5.47;;;;;;;;;;5039585;28;20464;-76
2023/07/18 02:47:14;;;;;;;12.60;6.00;;;;;;;;;;5039628;28;20449;-76
2023/07/18 02:49:43;;;;;;;10.30;5.57;;;;;;;;;;5039512;28;20824;-76
2023/07/18 02:52:10;;;;;;;12.13;7.60;;;;;;;;;;5039251;28;20469;-76
2023/07/18 02:54:37;;;;;;;11.37;7.20;;;;;;;;;;5039336;28;20805;-76
2023/07/18 02:57:04;;;;;;;10.23;6.57;;;;;;;;;;5039363;28;20449;-76
2023/07/18 02:59:32;;;;;;;7.30;5.50;;;;;;;;;;5039568;28;20457;-76
2023/07/18 03:01:59;;;;;;;10.03;5.70;;;;;;;;;;5039467;28;20525;-76
2023/07/18 03:04:27;;;;;;;8.63;5.80;;;;;;;;;;5039353;28;20457;-76
2023/07/18 03:06:55;;;;;;;13.00;7.87;;;;;;;;;;5039500;28;20453;-76
2023/07/18 03:09:22;;;;;;;5.33;4.73;;;;;;;;;;5039524;28;20453;-76
2023/07/18 03:11:50;;;;;;;8.80;5.70;;;;;;;;;;5039423;28;20967;-76
2023/07/18 03:14:18;;;;;;;8.60;6.87;;;;;;;;;;5039070;28;20468;-76
2023/07/18 03:16:45;;;;;;;8.33;6.23;;;;;;;;;;5039214;28;20456;-76
2023/07/18 03:19:12;;;;;;;7.40;5.80;;;;;;;;;;5039195;28;20512;-76
2023/07/18 03:21:39;;;;;;;10.80;5.63;;;;;;;;;;5039206;28;20551;-76
2023/07/18 03:24:08;;;;;;;12.83;6.40;;;;;;;;;;5038954;28;20465;-76
2023/07/18 03:26:37;;;;;;;7.23;6.20;;;;;;;;;;5039241;28;20453;-76
2023/07/18 03:29:05;;;;;;;9.13;5.47;;;;;;;;;;5038845;28;20460;-76
2023/07/18 03:31:32;;;;;;;10.10;7.33;;;;;;;;;;5038812;28;20465;-76
2023/07/18 03:34:00;;;;;;;11.23;6.77;;;;;;;;;;5036159;28;20450;-76
2023/07/18 03:36:27;;;;;;;7.03;6.10;;;;;;;;;;5035113;28;20464;-76
2023/07/18 03:38:55;;;;;;;10.13;8.00;;;;;;;;;;5035281;28;20446;-76
2023/07/18 03:41:23;;;;;;;11.53;6.83;;;;;;;;;;5034882;28;20844;-74
2023/07/18 03:43:50;;;;;;;15.60;6.40;;;;;;;;;;5035056;28;20962;-74
2023/07/18 03:46:18;;;;;;;9.57;6.17;;;;;;;;;;5034868;28;20490;-74
2023/07/18 03:48:45;;;;;;;7.43;5.77;;;;;;;;;;5034511;28;20832;-74
2023/07/18 03:51:14;;;;;;;11.20;6.10;;;;;;;;;;5034893;28;20473;-74
2023/07/18 03:53:41;;;;;;;7.70;5.70;;;;;;;;;;5034639;28;20519;-74
2023/07/18 03:56:08;;;;;;;8.00;6.20;;;;;;;;;;5034595;28;20520;-74
2023/07/18 03:58:37;;;;;;;9.30;5.80;;;;;;;;;;5034366;28;20460;-74
2023/07/18 04:01:08;;;;;;;12.03;6.50;;;;;;;;;;5034554;28;20469;-75
2023/07/18 04:03:35;;;;;;;9.47;6.43;;;;;;;;;;5034508;28;20883;-75
2023/07/18 04:06:02;;;;;;;9.00;4.73;;;;;;;;;;5034697;28;20450;-75
2023/07/18 04:08:29;;;;;;;12.70;6.77;;;;;;;;;;5034181;28;20831;-75
2023/07/18 04:10:58;;;;;;;9.80;6.27;;;;;;;;;;5034174;28;20478;-75
2023/07/18 04:13:25;;;;;;;7.87;5.70;;;;;;;;;;5034316;28;20446;-75
2023/07/18 04:15:53;;;;;;;8.53;5.93;;;;;;;;;;5034765;28;20452;-75
2023/07/18 04:18:20;;;;;;;7.57;6.00;;;;;;;;;;5034127;28;20458;-75
2023/07/18 04:20:49;;;;;;;8.43;5.83;;;;;;;;;;5034104;28;20828;-75
2023/07/18 04:23:16;;;;;;;7.03;5.90;;;;;;;;;;5033669;28;20802;-75
2023/07/18 04:25:57;;;;;;;7.53;5.23;;;;;;;;;;5034143;28;20454;-75
2023/07/18 04:28:24;;;;;;;8.30;5.63;;;;;;;;;;5033644;28;20514;-75
2023/07/18 04:30:51;;;;;;;8.97;6.57;;;;;;;;;;5033905;28;20569;-75
2023/07/18 04:33:19;;;;;;;8.30;5.67;;;;;;;;;;5033948;28;20449;-75
2023/07/18 04:35:47;;;;;;;11.13;6.03;;;;;;;;;;5034027;28;20817;-75
2023/07/18 04:38:14;;;;;;;5.50;4.90;;;;;;;;;;5033626;28;20462;-75
2023/07/18 04:40:42;;;;;;;10.23;5.10;;;;;;;;;;5033830;28;20478;-75
2023/07/18 04:43:09;;;;;;;8.23;6.20;;;;;;;;;;5033674;28;20490;-75
2023/07/18 04:45:42;;;;;;;5.73;5.23;;;;;;;;;;5033418;28;20545;-75
2023/07/18 04:48:10;;;;;;;10.77;5.77;;;;;;;;;;5033493;28;20493;-75
2023/07/18 04:50:39;;;;;;;7.07;5.37;;;;;;;;;;5033542;28;20485;-75
2023/07/18 04:53:06;;;;;;;7.53;5.30;;;;;;;;;;5033684;28;20492;-75
2023/07/18 04:55:34;;;;;;;10.90;7.90;;;;;;;;;;5033571;28;20962;-76
2023/07/18 04:58:01;;;;;;;6.00;5.47;;;;;;;;;;5033470;28;20548;-76
2023/07/18 05:00:29;;;;;;;7.00;5.60;;;;;;;;;;5033231;28;20469;-76
2023/07/18 05:02:57;;;;;;;11.43;5.37;;;;;;;;;;5033472;28;21030;-76
2023/07/18 05:05:24;;;;;;;6.20;5.60;;;;;;;;;;5033713;28;20939;-76
2023/07/18 05:07:53;;;;;;;11.57;5.60;;;;;;;;;;5033118;28;20540;-75
2023/07/18 05:10:20;;;;;;;5.43;4.93;;;;;;;;;;5033267;28;20454;-75
2023/07/18 05:12:47;;;;;;;7.47;5.10;;;;;;;;;;5032963;28;20453;-75
2023/07/18 05:15:14;;;;;;;5.10;4.60;;;;;;;;;;5033219;28;20454;-75
2023/07/18 05:17:41;;;;;;;6.73;5.43;;;;;;;;;;5032778;28;20457;-76
2023/07/18 05:20:11;;;;;;;7.10;4.67;;;;;;;;;;5033034;28;20450;-75
2023/07/18 05:22:38;;;;;;;5.83;5.10;;;;;;;;;;5032668;28;21017;-76
2023/07/18 05:25:07;;;;;;;6.80;4.70;;;;;;;;;;5032989;28;20453;-76
2023/07/18 05:27:34;;;;;;;5.33;4.83;;;;;;;;;;5032710;28;20824;-76
2023/07/18 05:30:01;;;;;;;10.20;5.20;;;;;;;;;;5033004;28;20446;-76
2023/07/18 05:32:28;;;;;;;9.77;4.73;;;;;;;;;;5032676;28;20965;-76
2023/07/18 05:34:55;;;;;;;6.07;4.43;;;;;;;;;;5032768;28;20472;-76
2023/07/18 05:37:25;;;;;;;5.80;4.77;;;;;;;;;;5032685;28;20453;-76
2023/07/18 05:39:52;;;;;;;7.50;4.70;;;;;;;;;;5032636;28;20511;-76
2023/07/18 05:42:21;;;;;;;5.43;3.97;;;;;;;;;;5032613;28;20511;-76
2023/07/18 05:44:48;;;;;;;5.33;3.93;;;;;;;;;;5032687;28;20464;-76
2023/07/18 05:47:16;;;;;;;5.03;4.50;;;;;;;;;;5032593;28;20836;-76
2023/07/18 05:49:43;;;;;;;7.33;4.13;;;;;;;;;;5032511;28;20457;-76
2023/07/18 05:52:10;;;;;;;7.90;4.60;;;;;;;;;;5032342;28;20477;-74
2023/07/18 05:54:38;;;;;;;6.83;4.57;;;;;;;;;;5032311;28;20475;-75
2023/07/18 05:57:05;;;;;;;6.43;4.20;;;;;;;;;;5031598;28;20473;-75
2023/07/18 05:59:34;;;;;;;5.67;5.10;;;;;;;;;;5032269;28;20942;-75
2023/07/18 06:02:02;;;;;;;5.00;4.50;;;;;;;;;;5032125;28;20484;-76
2023/07/18 06:04:30;;;;;;;10.30;5.87;;;;;;;;;;5032262;28;20460;-75
2023/07/18 06:06:57;;;;;;;7.80;4.90;;;;;;;;;;5032175;28;20535;-76
2023/07/18 06:09:24;;;;;;;5.37;4.83;;;;;;;;;;5032254;28;20452;-76
2023/07/18 06:11:51;;;;;;;7.00;5.13;;;;;;;;;;5032201;28;20496;-76
2023/07/18 06:14:19;;;;;;;6.43;4.70;;;;;;;;;;5031796;28;20453;-76
2023/07/18 06:16:48;;;;;;;5.87;4.97;;;;;;;;;;5032285;28;20250;-75
2023/07/18 06:19:15;;;;;;;4.70;3.73;;;;;;;;;;5031982;28;20453;-76
2023/07/18 06:21:42;;;;;;;6.00;4.97;;;;;;;;;;5031939;28;20234;-75
2023/07/18 06:24:09;;;;;;;5.40;3.97;;;;;;;;;;5030481;28;20603;-75
2023/07/18 06:26:37;;;;;;;9.17;4.70;;;;;;;;;;5031930;28;20530;-75
2023/07/18 06:29:04;;;;;;;7.30;4.43;;;;;;;;;;5032022;28;20222;-75
2023/07/18 06:31:33;;;;;;;5.40;3.90;;;;;;;;;;5032128;28;20477;-75
2023/07/18 06:34:01;;;;;;;5.10;3.67;;;;;;;;;;5032034;28;20229;-75
2023/07/18 06:36:28;;;;;;;7.50;3.63;;;;;;;;;;5031892;28;20468;-75
2023/07/18 06:38:55;;;;;;;5.60;3.80;;;;;;;;;;5031964;28;20799;-75
2023/07/18 06:41:22;;;;;;;8.13;4.60;;;;;;;;;;5031783;28;20477;-75
2023/07/18 06:43:49;;;;;;;9.57;4.70;;;;;;;;;;5031884;28;20846;-75
2023/07/18 06:46:17;;;;;;;5.43;4.27;;;;;;;;;;5031956;28;20232;-75
2023/07/18 06:48:44;;;;;;;4.60;4.20;;;;;;;;;;5013267;28;20451;-75
2023/07/18 06:51:14;;;;;;;6.07;4.57;;;;;;;;;;4990861;28;20479;-76
2023/07/18 06:53:41;;;;;;;5.63;4.47;;;;;;;;;;4991125;28;20463;-75
2023/07/18 06:56:08;;;;;;;6.50;4.40;;;;;;;;;;4991145;28;20212;-75
2023/07/18 06:58:35;;;;;;;6.23;4.90;;;;;;;;;;5002097;28;20477;-75
2023/07/18 07:01:03;;;;;;;7.97;4.80;;;;;;;;;;5010473;28;20485;-75
2023/07/18 07:03:30;;;;;;;6.37;4.43;;;;;;;;;;5010357;28;20489;-75
2023/07/18 07:05:57;;;;;;;4.93;4.00;;;;;;;;;;5010582;28;20459;-75
2023/07/18 07:08:25;;;;;;;13.50;4.37;;;;;;;;;;5010685;28;20458;-76
2023/07/18 07:10:53;;;;;;;5.33;4.43;;;;;;;;;;5014350;28;20477;-76
2023/07/18 07:13:20;;;;;;;5.40;4.30;;;;;;;;;;5013520;28;20460;-76
2023/07/18 07:15:48;;;;;;;4.60;3.70;;;;;;;;;;5014142;28;20549;-76
2023/07/18 07:18:15;;;;;;;13.60;3.57;;;;;;;;;;5014101;28;20462;-76
2023/07/18 07:20:42;;;;;;;5.63;3.00;;;;;;;;;;5013966;28;20548;-76
2023/07/18 07:23:09;;;;;;;7.20;3.60;;;;;;;;;;5014236;28;20489;-76
2023/07/18 07:25:37;;;;;;;4.63;2.60;;;;;;;;;;4995104;28;20451;-76
2023/07/18 07:28:05;;;;;;;7.23;3.43;;;;;;;;;;4995596;28;20455;-76
2023/07/18 07:30:32;;;;;;;3.60;2.70;;;;;;;;;;4995498;28;20491;-75
2023/07/18 07:32:59;;;;;;;4.27;3.00;;;;;;;;;;4995881;28;20513;-76
2023/07/18 07:35:26;;;;;;;5.90;3.03;;;;;;;;;;4995488;28;20466;-76
2023/07/18 07:37:53;;;;;;;4.50;3.00;;;;;;;;;;4995345;28;20455;-76
2023/07/18 07:40:21;;;;;;;4.40;2.90;;;;;;;;;;4995387;28;20538;-76
2023/07/18 07:42:49;;;;;;;3.87;2.93;;;;;;;;;;5003524;28;20501;-76
2023/07/18 07:45:16;;;;;;;4.43;3.23;;;;;;;;;;5014630;28;20828;-76
2023/07/18 07:47:44;;;;;;;4.80;3.80;;;;;;;;;;5013839;28;20450;-75
2023/07/18 07:50:12;;;;;;;6.30;3.70;;;;;;;;;;5014881;28;20870;-76
2023/07/18 07:52:39;;;;;;;4.93;3.43;;;;;;;;;;5014929;28;20544;-76
2023/07/18 07:55:07;;;;;;;4.17;3.53;;;;;;;;;;5014991;28;20450;-76
2023/07/18 07:57:34;;;;;;;5.23;2.93;;;;;;;;;;5014629;28;20791;-76
2023/07/18 08:00:03;;;;;;;3.63;3.30;;;;;;;;;;5014856;28;20461;-76
2023/07/18 08:02:30;;;;;;;5.97;3.70;;;;;;;;;;5014398;28;20474;-76
2023/07/18 08:04:57;;;;;;;5.57;3.47;;;;;;;;;;5014778;28;20506;-76
2023/07/18 08:07:24;;;;;;;6.60;3.87;;;;;;;;;;5014469;28;20839;-76
2023/07/18 08:09:51;;;;;;;4.83;4.33;;;;;;;;;;5014642;28;20450;-76
2023/07/18 08:12:20;;;;;;;8.33;4.10;;;;;;;;;;5014494;28;20566;-76
2023/07/18 08:14:48;;;;;;;4.60;3.60;;;;;;;;;;5014408;28;20936;-76
2023/07/18 08:17:17;;;;;;;4.90;4.30;;;;;;;;;;5014257;28;20930;-76
2023/07/18 08:19:44;;;;;;;5.00;4.50;;;;;;;;;;5014052;28;20522;-76
2023/07/18 08:22:12;;;;;;;4.10;3.40;;;;;;;;;;5014027;28;20476;-76
2023/07/18 08:24:39;;;;;;;4.47;4.00;;;;;;;;;;5014111;28;20585;-76
2023/07/18 08:27:06;;;;;;;6.40;3.60;;;;;;;;;;5014053;28;20462;-76
2023/07/18 08:29:35;;;;;;;4.00;3.70;;;;;;;;;;5013856;28;20450;-76
2023/07/18 08:32:02;;;;;;;5.40;3.23;;;;;;;;;;5014086;28;20486;-76
2023/07/18 08:34:30;;;;;;;4.50;3.93;;;;;;;;;;5014154;28;20451;-76
2023/07/18 08:36:58;;;;;;;4.93;3.93;;;;;;;;;;5013873;28;20451;-76
2023/07/18 08:39:26;;;;;;;6.10;3.90;;;;;;;;;;5013943;28;20451;-76
2023/07/18 08:41:53;;;;;;;4.20;3.30;;;;;;;;;;5013864;28;20513;-75
2023/07/18 08:44:21;;;;;;;4.20;3.27;;;;;;;;;;5013855;28;20505;-76
2023/07/18 08:46:49;;;;;;;4.97;3.70;;;;;;;;;;5013798;28;20450;-76
2023/07/18 08:49:18;;;;;;;5.00;4.37;;;;;;;;;;5013971;28;20454;-76
2023/07/18 08:51:48;;;;;;;5.80;4.40;;;;;;;;;;5013579;28;20471;-76
2023/07/18 08:54:16;;;;;;;9.90;3.83;;;;;;;;;;5013685;28;20547;-76
2023/07/18 08:56:43;;;;;;;7.53;4.00;;;;;;;;;;5013763;28;20454;-76
2023/07/18 08:59:11;;;;;;;6.37;4.27;;;;;;;;;;5013533;28;20455;-76
2023/07/18 09:01:46;;;;;;;5.90;4.10;;;;;;;;;;5002210;28;20535;-76
2023/07/18 09:04:13;;;;;;;3.90;3.50;;;;;;;;;;4993251;28;20491;-76
2023/07/18 09:06:47;;;;;;;6.37;4.27;;;;;;;;;;4993701;28;20471;-76
2023/07/18 09:09:20;;;;;;;7.03;4.33;;;;;;;;;;4993734;28;20825;-76
2023/07/18 09:11:55;;;;;;;6.10;4.43;;;;;;;;;;4993868;28;20838;-76
2023/07/18 09:14:26;;;;;;;3.87;3.47;;;;;;;;;;4993630;28;20446;-76
2023/07/18 09:16:54;;;;;;;7.07;3.80;;;;;;;;;;4993561;28;20514;-76
2023/07/18 09:19:21;;;;;;;5.70;4.17;;;;;;;;;;4993613;28;20459;-76
2023/07/18 09:21:48;;;;;;;6.50;4.60;;;;;;;;;;4993803;28;20497;-76
2023/07/18 09:24:17;;;;;;;5.47;4.00;;;;;;;;;;4993423;28;20488;-76
2023/07/18 09:26:44;;;;;;;7.53;4.00;;;;;;;;;;5014559;28;20462;-76
2023/07/18 09:29:11;;;;;;;4.87;4.47;;;;;;;;;;5015998;28;20461;-76
2023/07/18 09:31:39;;;;;;;4.33;3.93;;;;;;;;;;5026316;28;20484;-76
2023/07/18 09:34:12;;;;;;;9.67;5.80;;;;;;;;;;5031109;28;20453;-76
2023/07/18 09:36:39;;;;;;;5.60;5.10;;;;;;;;;;5031027;28;20453;-76
2023/07/18 09:39:09;;;;;;;6.67;4.50;;;;;;;;;;5031216;28;20514;-76
2023/07/18 09:41:39;;;;;;;5.83;3.80;;;;;;;;;;5031026;28;20480;-76
2023/07/18 09:44:06;;;;;;;7.33;4.23;;;;;;;;;;5031089;28;20493;-76
2023/07/18 09:46:34;;;;;;;5.70;4.30;;;;;;;;;;5021708;28;20450;-76
2023/07/18 09:49:02;;;;;;;4.90;4.07;;;;;;;;;;5011566;28;20465;-76
2023/07/18 09:51:33;;;;;;;5.47;4.00;;;;;;;;;;5012559;28;21006;-76
2023/07/18 09:54:00;;;;;;;5.13;3.97;;;;;;;;;;5011993;28;20469;-76
2023/07/18 09:56:28;;;;;;;4.23;3.83;;;;;;;;;;5012087;28;20476;-76
2023/07/18 09:59:01;;;;;;;7.00;4.17;;;;;;;;;;5012364;28;20454;-76
2023/07/18 10:01:29;;;;;;;5.50;4.50;;;;;;;;;;5012557;28;20474;-76
2023/07/18 10:03:56;;;;;;;7.80;4.60;;;;;;;;;;5012414;28;20490;-76
2023/07/18 10:06:24;;;;;;;8.63;4.10;;;;;;;;;;5012591;28;20454;-76
2023/07/18 10:08:51;;;;;;;3.67;3.37;;;;;;;;;;5012452;28;20465;-76
2023/07/18 10:11:18;;;;;;;6.43;4.60;;;;;;;;;;5012369;28;20476;-76
2023/07/18 10:14:02;;;;;;;5.10;4.03;;;;;;;;;;5012391;28;20450;-76
2023/07/18 10:16:32;;;;;;;6.40;4.23;;;;;;;;;;5012456;28;20472;-76
2023/07/18 10:18:59;;;;;;;15.00;4.40;;;;;;;;;;5012176;28;20457;-77
2023/07/18 10:21:31;;;;;;;3.93;3.63;;;;;;;;;;5007130;28;20871;-77
2023/07/18 10:23:58;;;;;;;4.67;4.10;;;;;;;;;;4991240;28;20493;-76
2023/07/18 10:26:30;;;;;;;5.37;4.20;;;;;;;;;;4991024;28;20850;-76
2023/07/18 10:29:01;;;;;;;4.57;3.80;;;;;;;;;;4991042;28;20459;-76
2023/07/18 10:31:28;;;;;;;5.23;4.00;;;;;;;;;;4991248;28;20483;-76
2023/07/18 10:34:09;;;;;;;12.90;4.33;;;;;;;;;;4991166;28;20447;-76
2023/07/18 10:36:36;;;;;;;4.47;3.90;;;;;;;;;;4991318;28;20928;-77
2023/07/18 10:39:08;;;;;;;5.80;3.33;;;;;;;;;;4990973;28;20541;-76
2023/07/18 10:41:35;;;;;;;4.80;4.40;;;;;;;;;;4991075;28;20533;-76
2023/07/18 10:44:02;;;;;;;5.40;4.37;;;;;;;;;;4992673;28;20494;-76
2023/07/18 10:46:36;;;;;;;5.47;4.43;;;;;;;;;;4995204;28;20459;-77
2023/07/18 10:49:04;;;;;;;5.40;4.07;;;;;;;;;;4994873;28;20513;-76
2023/07/18 10:51:32;;;;;;;5.00;4.30;;;;;;;;;;4995398;28;20886;-76
2023/07/18 10:53:59;;;;;;;5.97;4.13;;;;;;;;;;4994907;28;20450;-77
2023/07/18 10:56:27;;;;;;;4.43;3.30;;;;;;;;;;4994572;28;20808;-77
2023/07/18 10:58:56;;;;;;;6.63;4.00;;;;;;;;;;4994968;28;21015;-76
2023/07/18 11:01:25;;;;;;;6.90;4.00;;;;;;;;;;4994969;28;20464;-77
2023/07/18 11:03:52;;;;;;;8.03;4.00;;;;;;;;;;4994621;28;20578;-77
2023/07/18 11:06:21;;;;;;;10.67;4.07;;;;;;;;;;4994682;28;20455;-76
2023/07/18 11:08:50;;;;;;;5.63;4.37;;;;;;;;;;4994513;28;20459;-76
2023/07/18 11:11:18;;;;;;;4.97;3.67;;;;;;;;;;4994631;28;20471;-77
2023/07/18 11:13:45;;;;;;;4.53;3.90;;;;;;;;;;4994801;28;20962;-76
2023/07/18 11:16:14;;;;;;;4.80;3.60;;;;;;;;;;4995900;28;20459;-76
2023/07/18 11:18:43;;;;;;;4.60;3.93;;;;;;;;;;4995755;28;20458;-76
2023/07/18 11:21:10;;;;;;;4.63;4.23;;;;;;;;;;4995736;28;20586;-76
2023/07/18 11:23:38;;;;;;;8.50;4.30;;;;;;;;;;4995734;28;20570;-77
2023/07/18 11:26:13;;;;;;;4.60;4.00;;;;;;;;;;4996048;28;20798;-76
2023/07/18 11:28:41;;;;;;;5.90;4.20;;;;;;;;;;4995640;28;20465;-76
2023/07/18 11:31:08;;;;;;;5.30;4.07;;;;;;;;;;4996243;28;20467;-76
2023/07/18 11:33:35;;;;;;;5.30;4.07;;;;;;;;;;4995798;28;20458;-76
2023/07/18 11:36:09;;;;;;;6.03;5.47;;;;;;;;;;4996003;28;20463;-76
2023/07/18 11:38:37;;;;;;;4.80;3.80;;;;;;;;;;4995602;28;20489;-76
2023/07/18 11:41:05;;;;;;;6.17;4.17;;;;;;;;;;4995729;28;20893;-76
2023/07/18 11:43:34;;;;;;;4.80;4.40;;;;;;;;;;4995890;28;20937;-76
2023/07/18 11:46:02;;;;;;;5.50;4.27;;;;;;;;;;4995710;28;20455;-76
2023/07/18 11:48:29;;;;;;;6.33;4.50;;;;;;;;;;4995419;28;20466;-76
2023/07/18 11:50:56;;;;;;;14.30;5.07;;;;;;;;;;4995555;28;20844;-76
2023/07/18 11:53:27;;;;;;;4.40;4.00;;;;;;;;;;4995399;28;20482;-75
2023/07/18 11:55:55;;;;;;;4.93;4.40;;;;;;;;;;4994562;28;20446;-76
2023/07/18 11:58:24;;;;;;;4.63;4.23;;;;;;;;;;4995349;28;20459;-76
2023/07/18 12:00:53;;;;;;;4.47;4.07;;;;;;;;;;4995307;28;20597;-76
2023/07/18 12:03:20;;;;;;;4.80;4.30;;;;;;;;;;4995286;28;20457;-76
2023/07/18 12:05:47;;;;;;;9.13;5.00;;;;;;;;;;4995340;28;20497;-76
2023/07/18 12:08:16;;;;;;;4.47;3.80;;;;;;;;;;4995157;28;20455;-76
2023/07/18 12:10:44;;;;;;;6.83;4.27;;;;;;;;;;4995471;28;20485;-76
2023/07/18 12:13:11;;;;;;;5.00;4.57;;;;;;;;;;4995112;28;20510;-76
2023/07/18 12:15:38;;;;;;;7.00;4.20;;;;;;;;;;4995183;28;20478;-76
2023/07/18 12:18:06;;;;;;;4.50;4.10;;;;;;;;;;4994669;28;20475;-76
2023/07/18 12:20:34;;;;;;;6.00;4.43;;;;;;;;;;4994969;28;20475;-76
2023/07/18 12:23:01;;;;;;;6.13;4.70;;;;;;;;;;4995180;28;20461;-76
2023/07/18 12:25:31;;;;;;;5.30;4.40;;;;;;;;;;4994950;28;20513;-76
2023/07/18 12:27:59;;;;;;;5.03;4.03;;;;;;;;;;4994940;28;20463;-76
2023/07/18 12:30:26;;;;;;;4.43;4.03;;;;;;;;;;4994674;28;20451;-76
2023/07/18 12:32:54;;;;;;;5.80;4.50;;;;;;;;;;4994742;28;20491;-76
2023/07/18 12:35:22;;;;;;;7.40;4.43;;;;;;;;;;4994491;28;20509;-76
2023/07/18 12:37:49;;;;;;;9.47;4.20;;;;;;;;;;4994522;28;20823;-76
2023/07/18 12:40:18;;;;;;;7.10;5.23;;;;;;;;;;4994607;28;20933;-75
2023/07/18 12:42:45;;;;;;;5.50;5.00;;;;;;;;;;4994428;28;20456;-76
2023/07/18 12:45:12;;;;;;;5.07;4.20;;;;;;;;;;4994400;28;21096;-76
2023/07/18 12:47:39;;;;;;;6.10;4.37;;;;;;;;;;4994237;28;20492;-76
2023/07/18 12:50:07;;;;;;;6.90;5.23;;;;;;;;;;4994340;28;20455;-75
2023/07/18 12:52:36;;;;;;;5.17;4.67;;;;;;;;;;4994240;28;20511;-76
2023/07/18 12:55:03;;;;;;;6.10;4.23;;;;;;;;;;4994338;28;20458;-76
2023/07/18 12:57:30;;;;;;;5.63;5.10;;;;;;;;;;4993919;28;20458;-76
2023/07/18 12:59:57;;;;;;;5.50;3.93;;;;;;;;;;4994448;28;20829;-76
2023/07/18 13:02:24;;;;;;;5.90;5.30;;;;;;;;;;4993957;28;20482;-76
2023/07/18 13:04:51;;;;;;;8.97;5.50;;;;;;;;;;4993970;28;21023;-76
2023/07/18 13:07:19;;;;;;;7.83;4.30;;;;;;;;;;4993679;28;20455;-76
2023/07/18 13:09:47;;;;;;;5.37;4.87;;;;;;;;;;4993971;28;20467;-75
2023/07/18 13:12:14;;;;;;;6.40;5.20;;;;;;;;;;4993976;28;20476;-76
2023/07/18 13:14:41;;;;;;;10.87;4.40;;;;;;;;;;4993249;28;20460;-76
2023/07/18 13:17:08;;;;;;;6.97;4.80;;;;;;;;;;4994047;28;20432;-76
2023/07/18 13:19:36;;;;;;;5.10;4.60;;;;;;;;;;4993687;28;20458;-76
2023/07/18 13:22:03;;;;;;;9.80;4.30;;;;;;;;;;4993748;28;20478;-76
2023/07/18 13:24:30;;;;;;;6.20;5.17;;;;;;;;;;4993604;28;20822;-76
2023/07/18 13:26:58;;;;;;;12.47;5.97;;;;;;;;;;4993520;28;20463;-76
2023/07/18 13:29:25;;;;;;;8.00;5.30;;;;;;;;;;4993546;28;20450;-76
2023/07/18 13:31:52;;;;;;;6.23;4.90;;;;;;;;;;4993616;28;20490;-76
2023/07/18 13:34:21;;;;;;;7.10;5.00;;;;;;;;;;4993675;28;20550;-76
2023/07/18 13:36:49;;;;;;;7.97;5.00;;;;;;;;;;4993376;28;20468;-76
2023/07/18 13:39:16;;;;;;;5.03;4.57;;;;;;;;;;4993613;28;20451;-76
2023/07/18 13:41:43;;;;;;;4.30;3.90;;;;;;;;;;4993504;28;20490;-76
2023/07/18 13:44:12;;;;;;;13.77;4.30;;;;;;;;;;4993544;28;20792;-76
2023/07/18 13:46:39;;;;;;;5.10;4.13;;;;;;;;;;4993337;28;20475;-76
2023/07/18 13:49:06;;;;;;;6.23;4.27;;;;;;;;;;4993358;28;20822;-76
2023/07/18 13:51:33;;;;;;;5.40;4.33;;;;;;;;;;4993088;28;20475;-76
2023/07/18 13:54:00;;;;;;;8.37;5.37;;;;;;;;;;4993281;28;20560;-76
2023/07/18 13:56:27;;;;;;;6.87;5.20;;;;;;;;;;4993123;28;20470;-76
2023/07/18 13:58:55;;;;;;;7.00;5.53;;;;;;;;;;4993013;28;20448;-76
2023/07/18 14:01:23;;;;;;;6.23;5.63;;;;;;;;;;4993128;28;20961;-76
2023/07/18 14:03:50;;;;;;;8.33;4.63;;;;;;;;;;4993051;28;20455;-76
2023/07/18 14:06:17;;;;;;;5.83;4.47;;;;;;;;;;4993116;28;20491;-76
2023/07/18 14:08:44;;;;;;;6.33;4.70;;;;;;;;;;4992779;28;20460;-76
2023/07/18 14:11:12;;;;;;;7.57;4.30;;;;;;;;;;4993087;28;20478;-76
2023/07/18 14:13:41;;;;;;;5.97;4.60;;;;;;;;;;4992634;28;20789;-76
2023/07/18 14:16:08;;;;;;;8.70;5.30;;;;;;;;;;4993034;28;20452;-76
2023/07/18 14:18:37;;;;;;;10.10;5.87;;;;;;;;;;4992067;28;20514;-76
2023/07/18 14:21:04;;;;;;;10.23;5.03;;;;;;;;;;4992901;28;20475;-76
2023/07/18 14:23:31;;;;;;;5.80;5.10;;;;;;;;;;4992822;28;20467;-76
2023/07/18 14:25:58;;;;;;;5.20;4.70;;;;;;;;;;4992726;28;20495;-76
2023/07/18 14:28:25;;;;;;;6.13;5.50;;;;;;;;;;4992617;28;20483;-76
2023/07/18 14:30:53;;;;;;;12.70;5.37;;;;;;;;;;4992729;28;20511;-76
2023/07/18 14:33:20;;;;;;;6.37;4.73;;;;;;;;;;4992753;28;20475;-76
2023/07/18 14:35:48;;;;;;;5.00;4.60;;;;;;;;;;4992733;28;20458;-76
2023/07/18 14:38:15;;;;;;;4.90;4.40;;;;;;;;;;4992637;28;20464;-76
2023/07/18 14:40:43;;;;;;;4.50;4.10;;;;;;;;;;4992671;28;20562;-76
2023/07/18 14:43:11;;;;;;;5.77;5.20;;;;;;;;;;4992768;28;20451;-76
2023/07/18 14:45:38;;;;;;;6.60;5.40;;;;;;;;;;4992682;28;20491;-76